Time;durP1;ratioP1;P1;durP2;ratioP2;P2;SDS_P1;SDS_P2;PMS_P1;PMS_P2;Temp;Humidity;BMP_temperature;BMP_pressure;BME280_temperature;BME280_humidity;BME280_pressure;Samples;Min_cycle;Max_cycle;Signal;HPM_P1;HPM_P2
2021/08/21 00:01:21;;;;;;;;;;;;;;;15.37;76.79;99844.38;5031121;28;810;-60
2021/08/21 00:03:47;;;;;;;;;;;;;;;15.28;77.04;99850.56;5031082;28;882;-60
2021/08/21 00:06:14;;;;;;;;;;;;;;;15.07;77.26;99851.81;5030917;28;1890;-60
2021/08/21 00:08:41;;;;;;;;;;;;;;;14.82;77.74;99846.81;5031037;28;854;-60
2021/08/21 00:11:07;;;;;;;;;;;;;;;14.62;78.06;99848.84;5034555;28;861;-60
2021/08/21 00:13:34;;;;;;;;;;;;;;;14.47;78.43;99853.88;5034626;28;834;-60
2021/08/21 00:16:01;;;;;;;;;;;;;;;14.39;78.41;99853.22;5034661;28;1102;-60
2021/08/21 00:18:27;;;;;;;;;;;;;;;14.36;78.69;99851.31;5034508;28;887;-60
2021/08/21 00:20:54;;;;;;;;;;;;;;;14.29;78.71;99837.53;5034480;28;885;-60
2021/08/21 00:23:20;;;;;;;;;;;;;;;14.29;79.28;99843.09;5034373;28;888;-60
2021/08/21 00:25:46;;;;;;;;;;;;;;;14.37;79.62;99840.97;5034313;28;1914;-60
2021/08/21 00:28:13;;;;;;;;;;;;;;;14.42;79.47;99838.47;5034532;28;830;-60
2021/08/21 00:30:39;;;;;;;;;;;;;;;14.31;79.40;99840.66;5034234;28;870;-60
2021/08/21 00:33:06;;;;;;;;;;;;;;;14.21;79.54;99836.09;5034260;28;799;-60
2021/08/21 00:35:32;;;;;;;;;;;;;;;14.07;79.73;99851.84;5034291;28;799;-60
2021/08/21 00:37:59;;;;;;;;;;;;;;;13.98;79.91;99851.63;5034139;28;980;-60
2021/08/21 00:40:25;;;;;;;;;;;;;;;13.97;80.51;99855.59;5034090;28;833;-60
2021/08/21 00:42:52;;;;;;;;;;;;;;;14.04;80.62;99847.16;5034003;28;854;-60
2021/08/21 00:45:20;;;;;;;;;;;;;;;14.12;80.34;99850.56;5033881;28;1944;-60
2021/08/21 00:47:47;;;;;;;;;;;;;;;14.18;80.31;99848.84;5034020;28;882;-60
2021/08/21 00:50:14;;;;;;;;;;;;;;;14.23;80.25;99851.16;5033952;28;858;-60
2021/08/21 00:52:41;;;;;;;;;;;;;;;14.25;80.14;99848.75;5033891;28;870;-60
2021/08/21 00:55:08;;;;;;;;;;;;;;;14.27;80.12;99845.50;5015990;28;1299;-60
2021/08/21 00:57:38;;;;;;;;;;;;;;;14.27;80.07;99851.06;5033740;28;877;-60
2021/08/21 01:00:05;;;;;;;;;;;;;;;14.26;80.12;99841.19;5033732;28;807;-60
2021/08/21 01:02:32;;;;;;;;;;;;;;;14.23;80.39;99840.03;5033784;28;823;-60
2021/08/21 01:04:58;;;;;;;;;;;;;;;14.26;80.34;99841.97;5033541;28;874;-60
2021/08/21 01:07:27;;;;;;;;;;;;;;;14.25;80.29;99845.16;5033607;28;1948;-60
2021/08/21 01:09:54;;;;;;;;;;;;;;;14.23;80.38;99839.25;5033569;28;926;-60
2021/08/21 01:12:20;;;;;;;;;;;;;;;14.22;80.28;99843.25;5033541;28;804;-60
2021/08/21 01:14:48;;;;;;;;;;;;;;;14.21;80.48;99834.13;5033633;28;942;-60
2021/08/21 01:17:15;;;;;;;;;;;;;;;14.18;80.33;99825.84;5033308;28;1241;-60
2021/08/21 01:19:44;;;;;;;;;;;;;;;14.14;80.56;99834.25;5033407;28;823;-60
2021/08/21 01:22:15;;;;;;;;;;;;;;;14.10;80.54;99839.06;5032205;28;839;-60
2021/08/21 01:24:46;;;;;;;;;;;;;;;14.09;80.79;99835.53;5033421;28;945;-60
2021/08/21 01:27:20;;;;;;;;;;;;;;;14.11;80.88;99829.56;5033182;28;1905;-59
2021/08/21 01:29:48;;;;;;;;;;;;;;;14.12;80.94;99825.53;5033236;28;803;-60
2021/08/21 01:32:15;;;;;;;;;;;;;;;14.12;80.80;99822.00;5033230;28;795;-60
2021/08/21 01:34:42;;;;;;;;;;;;;;;14.08;80.79;99827.59;5033045;28;834;-60
2021/08/21 01:37:08;;;;;;;;;;;;;;;14.04;81.11;99821.34;5033228;28;851;-60
2021/08/21 01:39:35;;;;;;;;;;;;;;;14.02;81.01;99826.56;5032994;28;822;-60
2021/08/21 01:42:01;;;;;;;;;;;;;;;13.98;81.00;99826.59;5032978;28;930;-60
2021/08/21 01:44:28;;;;;;;;;;;;;;;13.96;81.03;99817.13;5032980;28;854;-59
2021/08/21 01:46:55;;;;;;;;;;;;;;;13.94;81.13;99831.44;5032845;28;1955;-60
2021/08/21 01:49:22;;;;;;;;;;;;;;;13.95;81.33;99823.88;5032859;28;893;-60
2021/08/21 01:51:50;;;;;;;;;;;;;;;13.92;81.24;99822.75;5032752;28;882;-60
2021/08/21 01:54:21;;;;;;;;;;;;;;;13.94;81.26;99820.34;5032648;28;822;-59
2021/08/21 01:56:56;;;;;;;;;;;;;;;13.92;81.13;99819.97;5032899;28;819;-60
2021/08/21 01:59:24;;;;;;;;;;;;;;;13.89;81.48;99826.41;5032701;28;792;-60
2021/08/21 02:01:51;;;;;;;;;;;;;;;13.88;81.38;99825.59;5032523;28;862;-60
2021/08/21 02:04:18;;;;;;;;;;;;;;;13.87;81.50;99826.81;5032608;28;847;-60
2021/08/21 02:06:44;;;;;;;;;;;;;;;13.89;81.72;99827.16;5032335;28;1885;-60
2021/08/21 02:09:16;;;;;;;;;;;;;;;13.91;81.54;99828.72;5032506;28;803;-60
2021/08/21 02:11:43;;;;;;;;;;;;;;;13.89;81.79;99832.72;5032449;28;830;-59
2021/08/21 02:14:10;;;;;;;;;;;;;;;13.91;81.51;99835.06;5032327;28;1022;-60
2021/08/21 02:16:36;;;;;;;;;;;;;;;13.86;81.56;99838.34;5032212;28;1375;-60
2021/08/21 02:19:03;;;;;;;;;;;;;;;13.86;81.54;99827.22;5032263;28;961;-60
2021/08/21 02:21:30;;;;;;;;;;;;;;;13.88;81.43;99831.13;5032200;28;890;-60
2021/08/21 02:23:58;;;;;;;;;;;;;;;13.90;81.58;99827.94;5032414;28;854;-60
2021/08/21 02:26:25;;;;;;;;;;;;;;;13.92;81.51;99833.09;5032159;28;1910;-60
2021/08/21 02:28:53;;;;;;;;;;;;;;;13.93;81.40;99829.88;5032087;28;889;-60
2021/08/21 02:31:20;;;;;;;;;;;;;;;13.94;81.23;99827.88;5032049;28;783;-60
2021/08/21 02:33:47;;;;;;;;;;;;;;;13.91;81.27;99835.06;5031676;28;827;-60
2021/08/21 02:36:13;;;;;;;;;;;;;;;13.90;81.35;99830.72;5032273;28;874;-60
2021/08/21 02:38:41;;;;;;;;;;;;;;;13.87;81.37;99826.81;5031941;28;783;-60
2021/08/21 02:41:08;;;;;;;;;;;;;;;13.85;81.37;99828.44;5014204;28;1153;-60
2021/08/21 02:43:35;;;;;;;;;;;;;;;13.81;81.41;99841.63;5031989;28;873;-60
2021/08/21 02:46:00;;;;;;;;;;;;;;;13.76;81.41;99834.56;5031946;28;1887;-60
2021/08/21 02:48:27;;;;;;;;;;;;;;;13.71;81.59;99831.47;5031735;28;827;-60
2021/08/21 02:50:54;;;;;;;;;;;;;;;13.69;81.93;99829.88;5032057;28;897;-60
2021/08/21 02:53:20;;;;;;;;;;;;;;;13.69;81.91;99835.44;5031681;28;803;-60
2021/08/21 02:55:47;;;;;;;;;;;;;;;13.67;82.14;99831.50;5031616;28;815;-60
2021/08/21 02:58:14;;;;;;;;;;;;;;;13.62;81.91;99834.78;5031628;28;854;-59
2021/08/21 03:00:43;;;;;;;;;;;;;;;13.57;81.97;99836.06;5031657;28;1146;-60
2021/08/21 03:03:10;;;;;;;;;;;;;;;13.54;82.40;99834.13;5031627;28;783;-60
2021/08/21 03:05:37;;;;;;;;;;;;;;;13.54;82.42;99836.88;5031462;28;1885;-60
2021/08/21 03:08:04;;;;;;;;;;;;;;;13.52;82.71;99836.53;5031679;28;819;-60
2021/08/21 03:10:30;;;;;;;;;;;;;;;13.52;82.75;99835.75;5031566;28;807;-60
2021/08/21 03:12:57;;;;;;;;;;;;;;;13.52;82.68;99844.84;5031527;28;799;-59
2021/08/21 03:15:28;;;;;;;;;;;;;;;13.56;82.60;99850.34;5031804;28;886;-60
2021/08/21 03:17:54;;;;;;;;;;;;;;;13.59;83.11;99853.09;5031304;28;1340;-60
2021/08/21 03:20:20;;;;;;;;;;;;;;;13.64;82.75;99857.38;5031428;28;894;-60
2021/08/21 03:22:47;;;;;;;;;;;;;;;13.67;82.44;99839.84;5031404;28;819;-60
2021/08/21 03:25:14;;;;;;;;;;;;;;;13.70;82.62;99850.13;5031404;28;1977;-60
2021/08/21 03:27:40;;;;;;;;;;;;;;;13.76;82.53;99840.09;5031378;28;815;-60
2021/08/21 03:30:07;;;;;;;;;;;;;;;13.79;82.45;99846.81;5031619;28;895;-60
2021/08/21 03:32:33;;;;;;;;;;;;;;;13.78;82.49;99848.78;5031383;28;898;-59
2021/08/21 03:35:01;;;;;;;;;;;;;;;13.78;82.12;99848.00;5031351;28;924;-60
2021/08/21 03:37:27;;;;;;;;;;;;;;;13.75;82.34;99852.41;5013552;28;1394;-60
2021/08/21 03:39:54;;;;;;;;;;;;;;;13.77;82.59;99857.56;5031287;28;850;-60
2021/08/21 03:42:21;;;;;;;;;;;;;;;13.81;82.52;99864.63;5031279;28;846;-60
2021/08/21 03:44:48;;;;;;;;;;;;;;;13.89;82.30;99862.50;5033044;28;819;-60
2021/08/21 03:47:14;;;;;;;;;;;;;;;13.93;82.13;99873.53;5035021;28;1881;-60
2021/08/21 03:49:39;;;;;;;;;;;;;;;13.94;82.13;99872.34;5035094;28;878;-60
2021/08/21 03:52:06;;;;;;;;;;;;;;;13.97;81.91;99868.72;5034973;28;795;-60
2021/08/21 03:54:33;;;;;;;;;;;;;;;14.00;81.73;99865.88;5035289;28;866;-60
2021/08/21 03:57:00;;;;;;;;;;;;;;;14.02;81.80;99863.47;5034933;28;802;-60
2021/08/21 03:59:26;;;;;;;;;;;;;;;14.06;81.73;99872.53;5034855;28;858;-60
2021/08/21 04:01:53;;;;;;;;;;;;;;;14.16;81.27;99873.50;5034880;28;810;-60
2021/08/21 04:04:20;;;;;;;;;;;;;;;14.24;81.01;99882.53;5034986;28;851;-60
2021/08/21 04:06:47;;;;;;;;;;;;;;;14.32;80.63;99878.41;5034739;28;1894;-60
2021/08/21 04:09:13;;;;;;;;;;;;;;;14.42;80.40;99882.16;5034805;28;818;-60
2021/08/21 04:11:40;;;;;;;;;;;;;;;14.47;80.01;99874.13;5016965;28;1317;-60
2021/08/21 04:14:06;;;;;;;;;;;;;;;14.54;79.79;99881.53;5034876;28;876;-60
2021/08/21 04:16:33;;;;;;;;;;;;;;;14.61;79.17;99883.41;5034669;28;1264;-60
2021/08/21 04:18:59;;;;;;;;;;;;;;;14.66;78.78;99867.03;5034855;28;858;-60
2021/08/21 04:21:26;;;;;;;;;;;;;;;14.70;78.74;99873.31;5034823;28;823;-59
2021/08/21 04:23:53;;;;;;;;;;;;;;;14.76;78.64;99876.34;5034731;28;807;-60
2021/08/21 04:26:20;;;;;;;;;;;;;;;14.82;78.26;99873.84;5034377;28;1967;-60
2021/08/21 04:28:47;;;;;;;;;;;;;;;14.88;78.08;99869.34;5034955;28;787;-60
2021/08/21 04:31:12;;;;;;;;;;;;;;;14.96;77.98;99870.78;5034555;28;842;-60
2021/08/21 04:33:39;;;;;;;;;;;;;;;15.07;77.59;99873.31;5034336;28;811;-60
2021/08/21 04:36:05;;;;;;;;;;;;;;;15.20;77.46;99888.13;5034175;28;842;-60
2021/08/21 04:38:32;;;;;;;;;;;;;;;15.36;77.23;99879.00;5034215;28;823;-60
2021/08/21 04:40:59;;;;;;;;;;;;;;;15.54;76.72;99878.59;5034093;28;905;-60
2021/08/21 04:43:25;;;;;;;;;;;;;;;15.78;76.20;99881.25;5034052;28;886;-60
2021/08/21 04:45:52;;;;;;;;;;;;;;;15.99;75.64;99885.50;5033961;28;1898;-60
2021/08/21 04:48:19;;;;;;;;;;;;;;;16.15;74.95;99882.66;5034294;28;885;-60
2021/08/21 04:50:46;;;;;;;;;;;;;;;16.26;74.75;99885.97;5033857;28;803;-60
2021/08/21 04:53:12;;;;;;;;;;;;;;;16.43;74.24;99886.69;5033909;28;819;-60
2021/08/21 04:55:39;;;;;;;;;;;;;;;16.59;73.45;99880.28;5033612;28;834;-60
2021/08/21 04:58:05;;;;;;;;;;;;;;;16.78;72.90;99886.91;5033773;28;878;-60
2021/08/21 05:00:32;;;;;;;;;;;;;;;17.00;72.23;99877.94;5034054;28;799;-60
2021/08/21 05:02:58;;;;;;;;;;;;;;;17.16;71.40;99877.06;5033694;28;807;-60
2021/08/21 05:05:26;;;;;;;;;;;;;;;17.31;70.97;99881.75;5033568;28;1886;-60
2021/08/21 05:07:53;;;;;;;;;;;;;;;17.52;70.66;99880.28;5033588;28;877;-60
2021/08/21 05:15:33;;;;;;;;;;;;;;;18.15;68.84;99880.63;5698844;23;1715;-60
2021/08/21 05:18:01;;;;;;;;;;;;;;;18.50;68.00;99884.19;5033589;28;909;-60
2021/08/21 05:23:15;;;;;;;;;;;;;;;19.02;66.24;99881.88;5033919;28;679;-60
2021/08/21 05:25:46;;;;;;;;;;;;;;;19.25;65.44;99885.44;5033339;28;1906;-60
2021/08/21 05:28:14;;;;;;;;;;;;;;;19.47;64.35;99883.31;5033317;28;1037;-60
2021/08/21 05:30:42;;;;;;;;;;;;;;;20.02;62.83;99884.75;5033033;28;1105;-60
2021/08/21 05:33:10;;;;;;;;;;;;;;;20.48;61.41;99885.50;5033198;28;791;-60
2021/08/21 05:35:37;;;;;;;;;;;;;;;21.03;60.17;99883.91;5033478;28;861;-60
2021/08/21 05:38:04;;;;;;;;;;;;;;;21.60;58.71;99887.59;5033033;28;838;-60
2021/08/21 05:40:31;;;;;;;;;;;;;;;22.26;56.75;99876.72;5033044;28;818;-60
2021/08/21 05:42:58;;;;;;;;;;;;;;;22.60;55.05;99884.53;5033038;28;873;-60
2021/08/21 05:45:25;;;;;;;;;;;;;;;22.61;54.95;99872.00;5032769;28;1922;-60
2021/08/21 05:47:52;;;;;;;;;;;;;;;22.63;55.01;99877.16;5032914;28;835;-60
2021/08/21 05:50:21;;;;;;;;;;;;;;;23.03;54.31;99878.66;5032945;28;850;-60
2021/08/21 05:52:49;;;;;;;;;;;;;;;23.96;52.08;99875.41;5032694;28;867;-60
2021/08/21 05:55:16;;;;;;;;;;;;;;;24.78;49.99;99878.91;5032788;28;906;-60
2021/08/21 05:57:42;;;;;;;;;;;;;;;25.81;47.44;99872.75;5032688;28;806;-61
2021/08/21 06:00:09;;;;;;;;;;;;;;;26.85;45.17;99874.13;5032608;28;823;-61
2021/08/21 06:02:35;;;;;;;;;;;;;;;27.75;42.65;99871.22;5032641;28;929;-61
2021/08/21 06:05:02;;;;;;;;;;;;;;;28.31;41.16;99875.91;5032577;28;811;-61
2021/08/21 06:07:30;;;;;;;;;;;;;;;28.87;40.41;99869.91;5031766;28;1979;-61
2021/08/21 06:09:56;;;;;;;;;;;;;;;29.39;39.45;99879.56;5032629;28;842;-60
2021/08/21 06:12:23;;;;;;;;;;;;;;;29.79;38.35;99877.13;5032473;28;830;-61
2021/08/21 06:14:50;;;;;;;;;;;;;;;30.04;37.32;99875.00;5032381;28;899;-60
2021/08/21 06:17:16;;;;;;;;;;;;;;;30.33;36.29;99870.47;5032210;28;1262;-61
2021/08/21 06:19:43;;;;;;;;;;;;;;;31.02;35.33;99873.09;5032349;28;846;-61
2021/08/21 06:22:09;;;;;;;;;;;;;;;31.54;34.55;99869.63;5032340;28;873;-61
2021/08/21 06:24:36;;;;;;;;;;;;;;;31.77;33.38;99871.25;5032487;28;874;-60
2021/08/21 06:27:03;;;;;;;;;;;;;;;31.71;33.71;99872.16;5032300;28;1902;-61
2021/08/21 06:29:34;;;;;;;;;;;;;;;32.04;33.46;99866.31;5032150;28;958;-60
2021/08/21 06:32:02;;;;;;;;;;;;;;;32.22;32.97;99870.34;5031978;28;903;-61
2021/08/21 06:34:29;;;;;;;;;;;;;;;32.39;32.52;99870.78;5031954;28;1025;-61
2021/08/21 06:36:57;;;;;;;;;;;;;;;32.55;31.10;99869.63;5031945;28;903;-61
2021/08/21 06:39:24;;;;;;;;;;;;;;;32.76;31.13;99866.03;5032008;28;818;-61
2021/08/21 06:41:51;;;;;;;;;;;;;;;32.97;30.89;99877.50;5031927;28;838;-61
2021/08/21 06:44:18;;;;;;;;;;;;;;;32.95;29.73;99872.31;5031773;28;874;-62
2021/08/21 06:46:44;;;;;;;;;;;;;;;32.71;30.13;99867.72;5031807;28;1882;-61
2021/08/21 06:49:11;;;;;;;;;;;;;;;32.99;30.33;99866.25;5031842;28;807;-61
2021/08/21 06:51:38;;;;;;;;;;;;;;;33.31;29.79;99868.84;5031761;28;991;-62
2021/08/21 06:54:05;;;;;;;;;;;;;;;33.19;28.79;99866.81;5031702;28;842;-61
2021/08/21 06:56:32;;;;;;;;;;;;;;;33.13;28.12;99873.44;5032004;28;827;-61
2021/08/21 06:58:59;;;;;;;;;;;;;;;33.09;28.14;99864.44;5031648;28;925;-62
2021/08/21 07:01:27;;;;;;;;;;;;;;;33.32;27.63;99861.75;5031698;28;846;-62
2021/08/21 07:03:53;;;;;;;;;;;;;;;33.62;27.30;99869.06;5031515;28;938;-62
2021/08/21 07:06:20;;;;;;;;;;;;;;;34.00;26.87;99868.50;5031559;28;1948;-62
2021/08/21 07:08:46;;;;;;;;;;;;;;;34.08;25.77;99862.81;5031590;28;912;-61
2021/08/21 07:11:13;;;;;;;;;;;;;;;33.91;25.31;99861.22;5031618;28;807;-62
2021/08/21 07:13:40;;;;;;;;;;;;;;;34.15;25.37;99862.09;5031516;28;810;-62
2021/08/21 07:16:06;;;;;;;;;;;;;;;34.60;25.17;99863.56;5031515;28;1379;-62
2021/08/21 07:18:33;;;;;;;;;;;;;;;34.56;25.27;99863.94;5032967;28;819;-62
2021/08/21 07:20:59;;;;;;;;;;;;;;;34.67;24.75;99859.97;5035584;28;900;-61
2021/08/21 07:23:26;;;;;;;;;;;;;;;34.74;24.83;99861.34;5035656;28;826;-62
2021/08/21 07:25:53;;;;;;;;;;;;;;;35.04;24.55;99862.72;5035504;28;1906;-62
2021/08/21 07:28:19;;;;;;;;;;;;;;;35.20;24.44;99863.50;5035454;28;858;-62
2021/08/21 07:30:46;;;;;;;;;;;;;;;34.87;24.78;99866.16;5035490;28;858;-62
2021/08/21 07:33:12;;;;;;;;;;;;;;;34.58;24.99;99872.75;5035418;28;913;-61
2021/08/21 07:35:38;;;;;;;;;;;;;;;34.74;23.25;99867.09;5035695;28;881;-62
2021/08/21 07:38:05;;;;;;;;;;;;;;;34.17;23.37;99871.66;5035245;28;924;-63
2021/08/21 07:40:34;;;;;;;;;;;;;;;33.31;23.93;99868.84;5035327;28;819;-64
2021/08/21 07:43:01;;;;;;;;;;;;;;;32.80;24.76;99871.41;5017452;28;865;-62
2021/08/21 07:45:28;;;;;;;;;;;;;;;33.24;25.14;99883.09;5035362;28;1890;-61
2021/08/21 07:47:55;;;;;;;;;;;;;;;33.67;24.66;99865.28;5017394;28;1173;-61
2021/08/21 07:50:23;;;;;;;;;;;;;;;34.19;23.52;99871.09;5035155;28;822;-61
2021/08/21 07:52:49;;;;;;;;;;;;;;;34.52;23.43;99869.28;5035020;28;886;-61
2021/08/21 07:55:16;;;;;;;;;;;;;;;35.02;23.05;99866.16;5034996;28;962;-62
2021/08/21 07:57:43;;;;;;;;;;;;;;;34.78;23.13;99870.31;5034988;28;862;-61
2021/08/21 08:00:10;;;;;;;;;;;;;;;34.48;23.24;99871.00;5034867;28;889;-62
2021/08/21 08:02:36;;;;;;;;;;;;;;;34.11;23.82;99876.00;5035226;28;897;-63
2021/08/21 08:05:03;;;;;;;;;;;;;;;33.90;24.14;99873.22;5034764;28;846;-63
2021/08/21 08:07:30;;;;;;;;;;;;;;;33.62;24.62;99869.06;5034718;28;1885;-62
2021/08/21 08:09:56;;;;;;;;;;;;;;;34.09;24.37;99865.09;5034706;28;810;-62
2021/08/21 08:12:23;;;;;;;;;;;;;;;33.97;24.30;99869.66;5034881;28;827;-62
2021/08/21 08:14:49;;;;;;;;;;;;;;;33.72;24.51;99863.59;5034833;28;999;-63
2021/08/21 08:17:16;;;;;;;;;;;;;;;33.19;25.64;99869.69;5016087;28;1410;-62
2021/08/21 08:19:43;;;;;;;;;;;;;;;33.10;24.94;99868.84;5014887;28;803;-64
2021/08/21 08:22:09;;;;;;;;;;;;;;;32.87;25.73;99870.72;5014760;28;819;-62
2021/08/21 08:24:35;;;;;;;;;;;;;;;32.99;25.56;99883.44;5014731;28;830;-62
2021/08/21 08:27:02;;;;;;;;;;;;;;;33.52;25.12;99868.78;5014661;28;1971;-61
2021/08/21 08:29:29;;;;;;;;;;;;;;;33.99;24.30;99869.06;5014330;28;921;-61
2021/08/21 08:31:56;;;;;;;;;;;;;;;34.06;24.67;99865.50;5014220;28;977;-61
2021/08/21 08:34:22;;;;;;;;;;;;;;;33.85;24.38;99848.38;5014564;28;815;-61
2021/08/21 08:36:49;;;;;;;;;;;;;;;34.13;24.50;99862.66;5014510;28;854;-61
2021/08/21 08:39:15;;;;;;;;;;;;;;;34.22;24.39;99855.63;5014298;28;981;-61
2021/08/21 08:41:42;;;;;;;;;;;;;;;34.41;24.34;99857.41;5014445;28;815;-63
2021/08/21 08:44:13;;;;;;;;;;;;;;;33.88;23.96;99855.84;5014334;28;870;-62
2021/08/21 08:46:39;;;;;;;;;;;;;;;33.51;24.36;99855.03;5014170;28;1899;-61
2021/08/21 08:49:06;;;;;;;;;;;;;;;33.28;25.11;99858.47;5014279;28;815;-62
2021/08/21 08:51:33;;;;;;;;;;;;;;;33.63;24.19;99862.00;5014237;28;877;-61
2021/08/21 08:54:00;;;;;;;;;;;;;;;33.69;24.64;99850.38;5014165;28;858;-62
2021/08/21 08:56:27;;;;;;;;;;;;;;;33.81;24.09;99848.72;5014144;28;905;-61
2021/08/21 08:58:52;;;;;;;;;;;;;;;33.77;24.37;99851.19;5014136;28;921;-61
2021/08/21 09:01:20;;;;;;;;;;;;;;;33.90;24.34;99842.47;5013789;28;877;-61
2021/08/21 09:03:47;;;;;;;;;;;;;;;33.85;24.74;99849.13;5014065;28;873;-61
2021/08/21 09:06:14;;;;;;;;;;;;;;;34.02;24.76;99845.78;4996320;28;1894;-62
2021/08/21 09:08:41;;;;;;;;;;;;;;;34.42;23.96;99844.59;5013843;28;977;-62
2021/08/21 09:11:21;;;;;;;;;;;;;;;34.44;24.20;99839.84;5013659;28;966;-61
2021/08/21 09:13:48;;;;;;;;;;;;;;;34.33;23.99;99843.81;5013784;28;889;-62
2021/08/21 09:16:24;;;;;;;;;;;;;;;33.94;24.12;99836.38;5022132;28;1426;-62
2021/08/21 09:19:11;;;;;;;;;;;;;;;33.60;24.49;99842.31;5033484;28;869;-61
2021/08/21 09:21:37;;;;;;;;;;;;;;;32.53;25.75;99835.09;5033531;28;1518;-61
2021/08/21 09:24:23;;;;;;;;;;;;;;;31.10;28.17;99837.66;5033410;28;822;-61
2021/08/21 09:26:50;;;;;;;;;;;;;;;30.20;29.35;99829.72;5033308;28;1918;-61
2021/08/21 09:29:27;;;;;;;;;;;;;;;30.05;30.08;99835.88;5033310;28;814;-62
2021/08/21 09:32:10;;;;;;;;;;;;;;;30.92;29.19;99829.97;5033208;28;881;-61
2021/08/21 09:34:38;;;;;;;;;;;;;;;30.83;27.79;99838.88;5033221;28;830;-62
2021/08/21 09:37:08;;;;;;;;;;;;;;;30.25;28.99;99840.25;5033134;28;850;-61
2021/08/21 09:39:40;;;;;;;;;;;;;;;30.87;28.98;99825.88;5015326;28;1575;-63
2021/08/21 09:42:08;;;;;;;;;;;;;;;31.41;27.96;99823.91;5031948;28;814;-61
2021/08/21 09:44:44;;;;;;;;;;;;;;;31.90;27.27;99817.75;5032929;28;885;-62
2021/08/21 09:47:11;;;;;;;;;;;;;;;32.28;26.97;99808.84;5032909;28;1890;-62
2021/08/21 09:49:38;;;;;;;;;;;;;;;32.80;25.81;99808.47;5032844;28;857;-62
2021/08/21 09:52:06;;;;;;;;;;;;;;;32.85;25.18;99814.03;5032873;28;826;-62
2021/08/21 09:54:33;;;;;;;;;;;;;;;32.48;26.43;99809.47;5015060;28;1200;-62
2021/08/21 09:57:01;;;;;;;;;;;;;;;32.89;25.97;99807.97;5032795;28;794;-62
2021/08/21 09:59:37;;;;;;;;;;;;;;;33.20;25.50;99814.69;5032752;28;874;-62
2021/08/21 10:02:08;;;;;;;;;;;;;;;32.90;25.89;99813.13;5032742;28;865;-62
2021/08/21 10:04:35;;;;;;;;;;;;;;;32.00;26.42;99808.72;5033334;28;838;-62
2021/08/21 10:07:05;;;;;;;;;;;;;;;30.93;27.84;99814.38;5032780;28;1886;-61
2021/08/21 10:09:38;;;;;;;;;;;;;;;30.26;28.97;99819.78;5032508;28;847;-61
2021/08/21 10:12:05;;;;;;;;;;;;;;;29.92;29.90;99810.91;5032342;28;901;-61
2021/08/21 10:14:33;;;;;;;;;;;;;;;29.76;30.11;99811.91;5032482;28;926;-62
2021/08/21 10:17:00;;;;;;;;;;;;;;;30.61;29.39;99811.50;5031541;28;1440;-61
2021/08/21 10:19:27;;;;;;;;;;;;;;;31.73;27.31;99809.50;5031620;28;787;-61
2021/08/21 10:21:58;;;;;;;;;;;;;;;31.82;26.80;99813.25;5031462;28;830;-62
2021/08/21 10:24:26;;;;;;;;;;;;;;;31.56;27.23;99806.25;5031427;28;920;-61
2021/08/21 10:26:56;;;;;;;;;;;;;;;30.91;28.31;99806.34;5031424;28;1914;-61
2021/08/21 10:29:22;;;;;;;;;;;;;;;30.28;28.91;99808.63;5031139;28;930;-62
2021/08/21 10:31:49;;;;;;;;;;;;;;;29.92;29.41;99805.22;5013679;28;902;-61
2021/08/21 10:34:16;;;;;;;;;;;;;;;29.86;29.65;99801.66;5031292;28;834;-61
2021/08/21 10:36:46;;;;;;;;;;;;;;;30.91;28.53;99797.03;5031400;28;1165;-61
2021/08/21 10:39:15;;;;;;;;;;;;;;;32.41;27.27;99802.34;5031232;28;881;-62
2021/08/21 10:41:42;;;;;;;;;;;;;;;32.73;26.09;99807.03;5013669;28;811;-61
2021/08/21 10:44:09;;;;;;;;;;;;;;;33.17;25.90;99790.06;5031425;28;901;-61
2021/08/21 10:46:35;;;;;;;;;;;;;;;33.24;24.88;99797.94;5031353;28;1959;-61
2021/08/21 10:49:06;;;;;;;;;;;;;;;32.68;26.39;99803.00;5031707;28;827;-61
2021/08/21 10:51:33;;;;;;;;;;;;;;;33.15;25.82;99799.22;5031118;28;858;-62
2021/08/21 10:54:20;;;;;;;;;;;;;;;33.41;24.78;99786.00;5030631;28;839;-62
2021/08/21 10:56:47;;;;;;;;;;;;;;;34.10;23.70;99797.06;5030919;28;1182;-62
2021/08/21 10:59:33;;;;;;;;;;;;;;;34.72;23.88;99798.78;5030996;28;866;-62
2021/08/21 11:02:38;;;;;;;;;;;;;;;34.53;23.10;99798.34;5031074;28;1114;-63
2021/08/21 11:05:05;;;;;;;;;;;;;;;34.19;23.79;99795.78;4950790;29;1292;-62
2021/08/21 11:07:32;;;;;;;;;;;;;;;34.21;23.39;99790.25;4950664;28;1882;-61
2021/08/21 11:10:16;;;;;;;;;;;;;;;34.47;22.75;99792.78;4950582;29;1111;-61
2021/08/21 11:12:45;;;;;;;;;;;;;;;34.21;22.63;99793.13;4950731;29;811;-62
2021/08/21 11:17:51;;;;;;;;;;;;;;;33.54;24.74;99796.59;5030122;27;3368758;-62
2021/08/21 11:20:28;;;;;;;;;;;;;;;32.91;24.99;99796.72;5150678;27;805;-63
2021/08/21 11:23:07;;;;;;;;;;;;;;;32.03;25.98;99788.38;5150520;27;802;-61
2021/08/21 11:25:37;;;;;;;;;;;;;;;32.41;25.98;99784.41;5150510;27;786;-62
2021/08/21 11:28:06;;;;;;;;;;;;;;;33.31;24.72;99785.03;5150727;27;868;-62
2021/08/21 11:30:34;;;;;;;;;;;;;;;34.17;23.72;99784.88;5150379;27;936;-62
2021/08/21 11:33:03;;;;;;;;;;;;;;;33.70;23.70;99783.16;5150389;27;832;-61
2021/08/21 11:35:36;;;;;;;;;;;;;;;32.85;25.71;99788.25;5150211;27;1910;-62
2021/08/21 11:38:05;;;;;;;;;;;;;;;32.07;26.30;99783.09;5150742;27;864;-62
2021/08/21 11:40:35;;;;;;;;;;;;;;;31.25;26.46;99787.84;5150145;27;881;-62
2021/08/21 11:43:04;;;;;;;;;;;;;;;31.22;26.84;99780.41;5131793;27;1308;-62
2021/08/21 11:45:31;;;;;;;;;;;;;;;32.60;25.80;99770.69;5150152;27;880;-62
2021/08/21 11:47:58;;;;;;;;;;;;;;;34.09;24.54;99766.84;5150432;27;953;-62
2021/08/21 11:50:28;;;;;;;;;;;;;;;34.95;23.12;99769.28;5149943;27;920;-62
2021/08/21 11:52:55;;;;;;;;;;;;;;;35.11;22.65;99767.16;5149973;27;837;-62
2021/08/21 11:55:22;;;;;;;;;;;;;;;35.08;24.72;99749.00;5149950;27;978;-63
2021/08/21 11:57:50;;;;;;;;;;;;;;;34.69;26.50;99768.34;5149871;27;1889;-62
2021/08/21 12:00:20;;;;;;;;;;;;;;;34.09;27.43;99764.00;5149852;27;869;-63
2021/08/21 12:02:49;;;;;;;;;;;;;;;33.21;28.50;99766.81;5149671;27;937;-62
2021/08/21 12:05:23;;;;;;;;;;;;;;;32.19;29.79;99762.81;5149764;27;865;-62
2021/08/21 12:07:50;;;;;;;;;;;;;;;31.09;31.79;99766.88;5149641;27;817;-62
2021/08/21 12:10:17;;;;;;;;;;;;;;;30.61;33.33;99766.63;5149939;27;822;-62
2021/08/21 12:12:44;;;;;;;;;;;;;;;30.58;33.76;99766.94;5149662;27;829;-61
2021/08/21 12:15:10;;;;;;;;;;;;;;;31.13;32.10;99764.44;5149700;27;864;-62
2021/08/21 12:17:37;;;;;;;;;;;;;;;31.36;32.91;99758.31;5149314;27;1889;-62
2021/08/21 12:20:04;;;;;;;;;;;;;;;32.06;32.05;99763.63;5149683;27;869;-62
2021/08/21 12:22:31;;;;;;;;;;;;;;;31.82;32.55;99753.25;5149693;27;836;-61
2021/08/21 12:24:58;;;;;;;;;;;;;;;32.03;32.01;99753.31;5149590;27;953;-62
2021/08/21 12:27:28;;;;;;;;;;;;;;;32.80;31.43;99734.81;5146220;27;821;-62
2021/08/21 12:30:08;;;;;;;;;;;;;;;33.76;30.48;99761.59;5135491;27;1230;-62
2021/08/21 12:32:35;;;;;;;;;;;;;;;34.71;28.52;99759.91;5135537;27;1013;-62
2021/08/21 12:35:12;;;;;;;;;;;;;;;34.66;28.19;99760.13;5135491;27;798;-62
2021/08/21 12:37:39;;;;;;;;;;;;;;;34.93;28.14;99760.47;5135166;27;1930;-63
2021/08/21 12:40:07;;;;;;;;;;;;;;;34.39;28.59;99757.56;5135448;27;885;-62
2021/08/21 12:42:34;;;;;;;;;;;;;;;32.69;30.73;99757.97;5135369;27;825;-62
2021/08/21 12:45:21;;;;;;;;;;;;;;;31.31;32.92;99759.97;5135206;27;872;-62
2021/08/21 12:47:47;;;;;;;;;;;;;;;30.38;34.75;99762.63;5135015;27;1581;-63
2021/08/21 12:50:15;;;;;;;;;;;;;;;30.08;34.93;99767.16;5135274;27;810;-61
2021/08/21 12:52:44;;;;;;;;;;;;;;;31.20;33.61;99760.97;5134958;27;951;-62
2021/08/21 12:55:12;;;;;;;;;;;;;;;32.88;30.95;99746.31;5135040;27;809;-63
2021/08/21 12:57:39;;;;;;;;;;;;;;;33.85;29.34;99753.78;5134794;27;1885;-62
2021/08/21 13:00:12;;;;;;;;;;;;;;;34.66;27.88;99760.88;5134928;27;829;-63
2021/08/21 13:02:46;;;;;;;;;;;;;;;34.48;27.81;99762.75;5134889;27;829;-62
2021/08/21 13:05:13;;;;;;;;;;;;;;;33.76;28.65;99758.72;5134957;27;922;-62
2021/08/21 13:07:49;;;;;;;;;;;;;;;33.51;29.25;99760.50;5134783;27;897;-62
2021/08/21 13:10:17;;;;;;;;;;;;;;;33.78;29.01;99754.50;5134659;27;880;-62
2021/08/21 13:12:44;;;;;;;;;;;;;;;34.01;28.42;99771.78;5134722;27;853;-63
2021/08/21 13:15:13;;;;;;;;;;;;;;;33.84;28.55;99755.91;5134593;27;861;-62
2021/08/21 13:17:40;;;;;;;;;;;;;;;34.09;28.32;99764.75;5134031;27;1910;-62
2021/08/21 13:20:07;;;;;;;;;;;;;;;34.01;28.00;99760.31;5134513;27;861;-62